West Shokan, New York
Current Conditions -  °F | °C
As of 7:53 AM on Sunday 21 Dec 2014 (Local Time) from KPOU Reporting Station
Overcast Overcast  
Wind Chill: 25°   Ceiling: 2000
Heat Index: 30°   Visibility: 10mi
Dew Point: 24°   Wind: 5mph
Humidity: 79%   Direction: 350°N
Pressure: 30.31"   Gusts: NA
Location:  41.97°N, 74.29°W
Report Text: KPOU 211253Z 35004KT 10SM OVC020 M01/M04 A3031 RMK AO2 SLP264 T10111044
Loading
Personal Weather Stations






























Interactive Weather Map New forecast layout! Learn more

10-Day Weather Forecast

Advertisements
Track Severe Weather on mobile